createdAt,value
2022-08-03T00:00:24.102Z,100260.69
2022-08-03T00:02:50.583Z,100255.06
2022-08-03T00:05:17.078Z,100255.22
2022-08-03T00:07:43.572Z,100257.31
2022-08-03T00:10:11.268Z,100255.06
2022-08-03T00:12:37.690Z,100250.69
2022-08-03T00:15:04.597Z,100256.47
2022-08-03T00:17:52.447Z,100259.16
2022-08-03T00:20:23.678Z,100264.28
2022-08-03T00:22:50.749Z,100244.97
2022-08-03T00:25:17.485Z,100250.56
2022-08-03T00:27:43.877Z,100254.13
2022-08-03T00:30:10.576Z,100243.72
2022-08-03T00:32:36.999Z,100247.34
2022-08-03T00:35:09.174Z,100250.19
2022-08-03T00:37:41.408Z,100250.19
2022-08-03T00:40:11.571Z,100246.28
2022-08-03T00:42:47.753Z,100243.78
2022-08-03T00:45:14.555Z,100241.75
2022-08-03T00:47:41.007Z,100236.69
2022-08-03T00:50:07.693Z,100238.97
2022-08-03T00:52:35.211Z,100231.69
2022-08-03T00:55:03.540Z,100236.06
2022-08-03T00:57:31.783Z,100236.06
2022-08-03T01:00:00.109Z,100239.84
2022-08-03T01:02:28.385Z,100230.09
2022-08-03T01:04:55.532Z,100233.97
2022-08-03T01:07:37.086Z,100233.28
2022-08-03T01:10:10.393Z,100222.97
2022-08-03T01:13:02.667Z,100228.88
2022-08-03T01:15:37.317Z,100221.59
2022-08-03T01:18:12.617Z,100221.72
2022-08-03T01:20:43.972Z,100219.66
2022-08-03T01:23:10.356Z,100218.69
2022-08-03T01:26:06.083Z,100215.31
2022-08-03T01:29:01.491Z,100218.00
2022-08-03T01:31:36.030Z,100209.22
2022-08-03T01:34:23.476Z,100208.34
2022-08-03T01:36:53.993Z,100209.75
2022-08-03T01:39:21.776Z,100212.13
2022-08-03T01:41:53.677Z,100209.06
2022-08-03T01:44:27.417Z,100201.97
2022-08-03T01:46:59.552Z,100202.94
2022-08-03T01:49:28.395Z,100209.50
2022-08-03T01:52:04.316Z,100200.75
2022-08-03T01:54:37.757Z,100195.91
2022-08-03T01:57:05.722Z,100205.78
2022-08-03T01:59:35.427Z,100201.72
2022-08-03T02:02:15.433Z,100203.97
2022-08-03T02:04:52.691Z,100201.88
2022-08-03T02:07:19.608Z,100202.13
2022-08-03T02:09:50.949Z,100202.00
2022-08-03T02:12:18.993Z,100197.53
2022-08-03T02:14:47.193Z,100197.50
2022-08-03T02:17:14.602Z,100195.81
2022-08-03T02:19:43.291Z,100200.25
2022-08-03T02:22:11.998Z,100201.19
2022-08-03T02:24:38.821Z,100200.91
2022-08-03T02:27:24.289Z,100201.59
2022-08-03T02:30:00.391Z,100207.00
2022-08-03T02:32:34.331Z,100201.16
2022-08-03T02:35:01.232Z,100206.97
2022-08-03T02:37:32.461Z,100209.88
2022-08-03T02:40:03.886Z,100204.41
2022-08-03T02:42:32.873Z,100204.47
2022-08-03T02:45:03.240Z,100204.16
2022-08-03T02:47:52.193Z,100203.34
2022-08-03T02:50:19.147Z,100203.72
2022-08-03T02:52:47.898Z,100200.84
2022-08-03T02:55:16.614Z,100202.88
2022-08-03T02:57:46.421Z,100198.41
2022-08-03T03:00:13.620Z,100200.91
2022-08-03T03:02:57.241Z,100196.03
2022-08-03T03:05:54.897Z,100192.28
2022-08-03T03:08:18.872Z,100192.41
2022-08-03T03:10:48.020Z,100194.16
2022-08-03T03:13:15.973Z,100188.03
2022-08-03T03:15:45.118Z,100185.13
2022-08-03T03:18:12.886Z,100190.25
2022-08-03T03:20:40.919Z,100185.59
2022-08-03T03:23:09.261Z,100189.06
2022-08-03T03:25:36.450Z,100185.94
2022-08-03T03:28:03.168Z,100187.47
2022-08-03T03:30:33.410Z,100184.13
2022-08-03T03:33:00.076Z,100183.16
2022-08-03T03:35:27.630Z,100187.34
2022-08-03T03:37:54.142Z,100179.28
2022-08-03T03:40:21.719Z,100186.81
2022-08-03T03:42:48.205Z,100185.47
2022-08-03T03:45:15.414Z,100183.13
2022-08-03T03:47:42.198Z,100182.97
2022-08-03T03:50:10.880Z,100184.78
2022-08-03T03:52:37.596Z,100192.00
2022-08-03T03:55:04.392Z,100187.84
2022-08-03T03:57:30.875Z,100191.72
2022-08-03T03:59:57.694Z,100192.22
2022-08-03T04:02:24.195Z,100187.91
2022-08-03T04:05:08.942Z,100191.91
2022-08-03T04:08:16.684Z,100186.94
2022-08-03T04:11:00.183Z,100193.19
2022-08-03T04:13:43.613Z,100190.00
2022-08-03T04:16:14.787Z,100200.84
2022-08-03T04:18:44.045Z,100196.53
2022-08-03T04:21:14.866Z,100193.34
2022-08-03T04:23:44.452Z,100197.31
2022-08-03T04:26:15.037Z,100200.84
2022-08-03T04:28:46.070Z,100198.34
2022-08-03T04:31:14.878Z,100197.97
2022-08-03T04:33:43.647Z,100193.31
2022-08-03T04:36:14.823Z,100195.44
2022-08-03T04:39:03.726Z,100201.03
2022-08-03T04:41:32.030Z,100201.47
2022-08-03T04:44:00.427Z,100197.66
2022-08-03T04:46:31.779Z,100200.72
2022-08-03T04:48:59.124Z,100199.63
2022-08-03T04:51:26.175Z,100199.97
2022-08-03T04:53:52.599Z,100205.53
2022-08-03T04:56:19.402Z,100199.16
2022-08-03T04:58:46.065Z,100199.72
2022-08-03T05:01:12.560Z,100205.22
2022-08-03T05:03:39.123Z,100203.72
2022-08-03T05:06:09.998Z,100204.47
2022-08-03T05:08:46.377Z,100209.09
2022-08-03T05:11:16.301Z,100210.41
2022-08-03T05:13:43.445Z,100212.34
2022-08-03T05:16:10.051Z,100215.00
2022-08-03T05:18:36.458Z,100214.06
2022-08-03T05:21:02.987Z,100222.44
2022-08-03T05:23:29.490Z,100219.94
2022-08-03T05:25:56.136Z,100225.81
2022-08-03T05:28:23.340Z,100231.16
2022-08-03T05:30:50.043Z,100226.47
2022-08-03T05:33:16.471Z,100229.78
2022-08-03T05:36:02.211Z,100224.81
2022-08-03T05:38:35.035Z,100222.78
2022-08-03T05:41:22.905Z,100228.34
2022-08-03T05:43:51.849Z,100226.81
2022-08-03T05:46:18.286Z,100228.50
2022-08-03T05:48:44.741Z,100231.53
2022-08-03T05:51:11.928Z,100233.63
2022-08-03T05:53:39.210Z,100236.69
2022-08-03T05:56:13.758Z,100236.53
2022-08-03T05:58:42.298Z,100245.19
2022-08-03T06:01:08.822Z,100233.44
2022-08-03T06:03:35.303Z,100234.41
2022-08-03T06:06:01.844Z,100227.28
2022-08-03T06:08:28.382Z,100239.66
2022-08-03T06:10:54.898Z,100231.00
2022-08-03T06:13:22.054Z,100233.66
2022-08-03T06:15:48.555Z,100235.25
2022-08-03T06:18:15.011Z,100239.41
2022-08-03T06:20:41.468Z,100231.59
2022-08-03T06:23:08.037Z,100230.59
2022-08-03T06:25:43.024Z,100232.25
2022-08-03T06:28:18.960Z,100235.69
2022-08-03T06:30:50.613Z,100232.00
2022-08-03T06:33:17.130Z,100230.50
2022-08-03T06:35:45.197Z,100235.47
2022-08-03T06:38:12.999Z,100231.03
2022-08-03T06:40:42.156Z,100240.09
2022-08-03T06:43:12.441Z,100231.75
2022-08-03T06:45:39.341Z,100233.66
2022-08-03T06:48:07.975Z,100235.41
2022-08-03T06:50:36.041Z,100238.91
2022-08-03T06:53:03.951Z,100233.94
2022-08-03T06:55:31.527Z,100237.19
2022-08-03T06:58:00.146Z,100244.38
2022-08-03T07:00:30.915Z,100241.72
2022-08-03T07:02:58.373Z,100234.06
2022-08-03T07:05:25.795Z,100244.69
2022-08-03T07:07:56.577Z,100240.69
2022-08-03T07:10:23.098Z,100240.59
2022-08-03T07:12:56.032Z,100242.56
2022-08-03T07:15:55.877Z,100238.94
2022-08-03T07:18:10.033Z,100236.94
2022-08-03T07:20:36.716Z,100244.44
2022-08-03T07:23:03.367Z,100235.78
2022-08-03T07:25:29.802Z,100243.50
2022-08-03T07:27:56.337Z,100244.81
2022-08-03T07:30:23.091Z,100253.44
2022-08-03T07:32:50.657Z,100253.22
2022-08-03T07:35:24.205Z,100250.53
2022-08-03T07:37:54.936Z,100256.28
2022-08-03T07:40:22.249Z,100251.94
2022-08-03T07:42:48.803Z,100259.19
2022-08-03T07:45:21.410Z,100254.53
2022-08-03T07:47:53.612Z,100257.19
2022-08-03T07:50:20.847Z,100255.84
2022-08-03T07:52:52.096Z,100255.09
2022-08-03T07:55:22.013Z,100253.41
2022-08-03T07:58:06.325Z,100253.25
2022-08-03T08:00:34.003Z,100250.84
2022-08-03T08:03:00.540Z,100246.88
2022-08-03T08:05:27.941Z,100252.41
2022-08-03T08:07:54.325Z,100250.69
2022-08-03T08:10:20.986Z,100251.31
2022-08-03T08:12:47.503Z,100241.44
2022-08-03T08:15:14.160Z,100242.94
2022-08-03T08:17:51.872Z,100237.09
2022-08-03T08:20:31.862Z,100238.16
2022-08-03T08:23:01.618Z,100234.56
2022-08-03T08:25:30.313Z,100236.84
2022-08-03T08:28:22.251Z,100239.63
2022-08-03T08:30:44.414Z,100241.59
2022-08-03T08:33:22.673Z,100234.63
2022-08-03T08:35:50.286Z,100233.13
2022-08-03T08:38:16.711Z,100234.81
2022-08-03T08:40:43.119Z,100245.56
2022-08-03T08:43:09.579Z,100233.84
2022-08-03T08:45:36.409Z,100237.22
2022-08-03T08:48:08.073Z,100239.78
2022-08-03T08:50:37.450Z,100239.78
2022-08-03T08:53:07.151Z,100231.03
2022-08-03T08:55:58.104Z,100234.69
2022-08-03T08:58:24.282Z,100238.09
2022-08-03T09:00:51.105Z,100241.34
2022-08-03T09:03:29.127Z,100236.34
2022-08-03T09:05:57.673Z,100235.09
2022-08-03T09:08:24.331Z,100236.13
2022-08-03T09:10:50.916Z,100239.63
2022-08-03T09:13:17.512Z,100230.06
2022-08-03T09:15:52.721Z,100223.34
2022-08-03T09:18:33.005Z,100226.25
2022-08-03T09:21:31.040Z,100223.94
2022-08-03T09:24:03.323Z,100221.88
2022-08-03T09:26:31.670Z,100220.44
2022-08-03T09:29:06.006Z,100226.44
2022-08-03T09:31:45.779Z,100229.84
2022-08-03T09:34:17.804Z,100221.09
2022-08-03T09:36:48.857Z,100215.59
2022-08-03T09:39:40.695Z,100218.56
2022-08-03T09:42:23.907Z,100217.00
2022-08-03T09:44:52.105Z,100215.75
2022-08-03T09:47:32.798Z,100214.88
2022-08-03T09:50:07.732Z,100205.75
2022-08-03T09:52:38.736Z,100210.06
2022-08-03T09:56:32.577Z,100209.91
2022-08-03T09:58:07.048Z,100215.13
2022-08-03T10:00:53.970Z,100208.69
2022-08-03T10:03:20.981Z,100210.56
2022-08-03T10:05:47.396Z,100209.59
2022-08-03T10:08:18.749Z,100213.28
2022-08-03T10:10:47.794Z,100206.50
2022-08-03T10:13:16.093Z,100203.19
2022-08-03T10:16:24.210Z,100202.16
2022-08-03T10:18:29.113Z,100193.25
2022-08-03T10:21:02.030Z,100190.28
2022-08-03T10:23:33.533Z,100185.81
2022-08-03T10:26:03.627Z,100188.63
2022-08-03T10:28:44.536Z,100177.47
2022-08-03T10:31:13.945Z,100185.38
2022-08-03T10:33:51.149Z,100179.06
2022-08-03T10:36:22.057Z,100182.97
2022-08-03T10:38:56.540Z,100179.66
2022-08-03T10:41:31.558Z,100176.94
2022-08-03T10:44:09.772Z,100182.53
2022-08-03T10:46:44.164Z,100166.09
2022-08-03T10:49:14.939Z,100169.09
2022-08-03T10:51:46.954Z,100170.53
2022-08-03T10:54:35.201Z,100168.94
2022-08-03T10:57:20.194Z,100163.75
2022-08-03T10:59:46.641Z,100158.38
2022-08-03T11:02:16.224Z,100167.66
2022-08-03T11:04:42.946Z,100157.91
2022-08-03T11:07:15.658Z,100155.09
2022-08-03T11:09:42.824Z,100163.69
2022-08-03T11:12:31.383Z,100156.81
2022-08-03T11:15:05.478Z,100149.84
2022-08-03T11:17:33.966Z,100148.38
2022-08-03T11:20:13.592Z,100142.09
2022-08-03T11:22:51.569Z,100136.19
2022-08-03T11:25:54.970Z,100139.31
2022-08-03T11:28:27.142Z,100138.84
2022-08-03T11:30:53.582Z,100138.06
2022-08-03T11:33:31.123Z,100136.41
2022-08-03T11:36:02.431Z,100137.03
2022-08-03T11:38:28.928Z,100138.81
2022-08-03T11:40:55.377Z,100127.22
2022-08-03T11:43:21.773Z,100131.72
2022-08-03T11:46:06.164Z,100131.69
2022-08-03T11:48:47.101Z,100138.00
2022-08-03T11:51:30.984Z,100124.28
2022-08-03T11:54:05.861Z,100127.56
2022-08-03T11:56:47.532Z,100125.59
2022-08-03T11:59:20.710Z,100117.53
2022-08-03T12:01:48.502Z,100116.22
2022-08-03T12:04:16.220Z,100115.06
2022-08-03T12:06:58.318Z,100107.19
2022-08-03T12:09:24.850Z,100110.13
2022-08-03T12:11:59.486Z,100111.41
2022-08-03T12:14:48.519Z,100113.72
2022-08-03T12:17:14.771Z,100107.97
2022-08-03T12:19:44.601Z,100102.97
2022-08-03T12:22:11.062Z,100105.19
2022-08-03T12:24:46.724Z,100102.47
2022-08-03T12:27:23.529Z,100102.72
2022-08-03T12:29:58.837Z,100095.91
2022-08-03T12:32:26.917Z,100097.75
2022-08-03T12:34:53.342Z,100096.03
2022-08-03T12:37:22.715Z,100085.44
2022-08-03T12:40:00.509Z,100093.66
2022-08-03T12:42:34.715Z,100092.84
2022-08-03T12:45:18.073Z,100090.97
2022-08-03T12:47:56.101Z,100089.78
2022-08-03T12:50:25.633Z,100076.66
2022-08-03T12:52:52.259Z,100075.38
2022-08-03T12:55:23.191Z,100080.31
2022-08-03T12:57:49.766Z,100074.34
2022-08-03T13:00:28.869Z,100070.38
2022-08-03T13:03:39.640Z,100070.91
2022-08-03T13:05:50.901Z,100075.19
2022-08-03T13:08:22.573Z,100067.75
2022-08-03T13:10:49.542Z,100063.69
2022-08-03T13:13:16.578Z,100062.84
2022-08-03T13:15:48.075Z,100066.34
2022-08-03T13:18:17.212Z,100067.22
2022-08-03T13:20:44.161Z,100067.16
2022-08-03T13:23:15.371Z,100068.66
2022-08-03T13:25:55.027Z,100062.38
2022-08-03T13:28:22.478Z,100065.66
2022-08-03T13:30:48.908Z,100061.28
2022-08-03T13:33:15.323Z,100053.28
2022-08-03T13:35:41.815Z,100054.28
2022-08-03T13:38:08.314Z,100053.56
2022-08-03T13:40:41.815Z,100046.28
2022-08-03T13:43:08.516Z,100043.81
2022-08-03T13:45:34.956Z,100044.97
2022-08-03T13:48:01.398Z,100041.19
2022-08-03T13:50:27.842Z,100040.94
2022-08-03T13:52:54.301Z,100034.81
2022-08-03T13:55:20.687Z,100029.59
2022-08-03T13:58:04.670Z,100032.84
2022-08-03T14:00:33.940Z,100025.97
2022-08-03T14:03:12.833Z,100024.09
2022-08-03T14:05:40.926Z,100030.91
2022-08-03T14:08:08.509Z,100031.31
2022-08-03T14:10:37.353Z,100027.53
2022-08-03T14:13:04.570Z,100015.50
2022-08-03T14:15:31.737Z,100013.47
2022-08-03T14:17:58.735Z,100018.53
2022-08-03T14:20:38.701Z,100017.28
2022-08-03T14:23:14.257Z,100016.91
2022-08-03T14:25:50.506Z,100022.63
2022-08-03T14:28:22.680Z,100014.69
2022-08-03T14:30:50.422Z,100011.28
2022-08-03T14:33:16.963Z,100013.41
2022-08-03T14:35:43.596Z,100003.06
2022-08-03T14:38:10.125Z,100002.78
2022-08-03T14:40:36.690Z,100004.91
2022-08-03T14:43:03.195Z,100000.72
2022-08-03T14:45:29.649Z,100007.13
2022-08-03T14:50:34.819Z,100006.91
2022-08-03T14:50:48.359Z,100002.75
2022-08-03T14:53:17.598Z,99996.69
2022-08-03T14:55:49.662Z,99998.22
2022-08-03T14:58:27.694Z,99998.50
2022-08-03T15:00:55.503Z,100000.38
2022-08-03T15:03:26.107Z,99996.06
2022-08-03T15:05:54.004Z,99988.78
2022-08-03T15:08:21.398Z,99987.94
2022-08-03T15:10:50.765Z,99986.88
2022-08-03T15:13:17.862Z,99989.75
2022-08-03T15:15:44.294Z,99986.56
2022-08-03T15:18:10.751Z,99984.59
2022-08-03T15:20:46.605Z,99970.59
2022-08-03T15:23:15.052Z,99978.34
2022-08-03T15:26:28.963Z,99971.13
2022-08-03T15:28:28.925Z,99966.69
2022-08-03T15:30:55.344Z,99960.69
2022-08-03T15:33:21.907Z,99958.06
2022-08-03T15:35:49.679Z,99959.34
2022-08-03T15:38:16.097Z,99955.72
2022-08-03T15:40:42.582Z,99948.91
2022-08-03T15:43:09.041Z,99953.06
2022-08-03T15:45:36.518Z,99943.50
2022-08-03T15:48:04.150Z,99947.16
2022-08-03T15:50:30.611Z,99940.91
2022-08-03T15:52:57.104Z,99938.94
2022-08-03T15:55:23.572Z,99935.06
2022-08-03T15:59:04.506Z,99932.06
2022-08-03T16:00:36.565Z,99932.28
2022-08-03T16:03:03.073Z,99927.81
2022-08-03T16:05:29.671Z,99932.34
2022-08-03T16:08:02.641Z,99931.34
2022-08-03T16:10:30.817Z,99925.78
2022-08-03T16:12:58.945Z,99920.84
2022-08-03T16:15:25.552Z,99920.03
2022-08-03T16:17:52.013Z,99920.91
2022-08-03T16:20:31.668Z,99916.41
2022-08-03T16:23:09.124Z,99908.69
2022-08-03T16:25:39.177Z,99910.19
2022-08-03T16:28:08.084Z,99912.31
2022-08-03T16:30:40.288Z,99919.56
2022-08-03T16:33:06.917Z,99908.56
2022-08-03T16:35:33.606Z,99918.41
2022-08-03T16:38:00.055Z,99909.69
2022-08-03T16:40:26.669Z,99918.81
2022-08-03T16:42:53.474Z,99906.50
2022-08-03T16:45:19.979Z,99911.44
2022-08-03T16:47:46.679Z,99915.81
2022-08-03T16:50:19.735Z,99904.22
2022-08-03T16:52:47.813Z,99911.13
2022-08-03T16:55:18.284Z,99903.59
2022-08-03T16:57:58.518Z,99906.66
2022-08-03T17:00:32.820Z,99910.53
2022-08-03T17:03:04.117Z,99908.66
2022-08-03T17:05:43.805Z,99904.06
2022-08-03T17:08:14.689Z,99899.00
2022-08-03T17:10:45.319Z,99905.03
2022-08-03T17:13:20.773Z,99896.75
2022-08-03T17:15:58.637Z,99903.84
2022-08-03T17:18:32.337Z,99907.47
2022-08-03T17:21:03.333Z,99901.94
2022-08-03T17:24:05.461Z,99903.19
2022-08-03T17:26:45.714Z,99912.53
2022-08-03T17:29:22.958Z,99902.31
2022-08-03T17:31:52.801Z,99906.09
2022-08-03T17:34:20.742Z,99904.31
2022-08-03T17:37:27.066Z,99897.03
2022-08-03T17:39:58.329Z,99902.44
2022-08-03T17:42:29.955Z,99901.63
2022-08-03T17:44:58.739Z,99902.88
2022-08-03T17:47:41.374Z,99905.56
2022-08-03T17:50:23.449Z,99901.00
2022-08-03T17:52:58.266Z,99913.66
2022-08-03T17:55:57.371Z,99906.38
2022-08-03T17:58:25.448Z,99903.56
2022-08-03T18:01:59.789Z,99910.09
2022-08-03T18:04:11.136Z,99912.22
2022-08-03T18:06:55.509Z,99913.75
2022-08-03T18:10:03.731Z,99910.94
2022-08-03T18:12:17.268Z,99915.13
2022-08-03T18:14:57.165Z,99925.63
2022-08-03T18:17:54.646Z,99920.47
2022-08-03T18:20:34.369Z,99917.00
2022-08-03T18:23:08.834Z,99916.41
2022-08-03T18:25:45.695Z,99912.59
2022-08-03T18:28:18.896Z,99914.25
2022-08-03T18:30:53.965Z,99912.50
2022-08-03T18:34:18.465Z,99910.25
2022-08-03T18:36:10.654Z,99917.13
2022-08-03T18:38:40.914Z,99917.75
2022-08-03T18:41:15.634Z,99915.88
2022-08-03T18:44:06.882Z,99924.00
2022-08-03T18:47:15.785Z,99915.78
2022-08-03T18:50:14.548Z,99917.66
2022-08-03T18:52:59.365Z,99920.66
2022-08-03T18:56:01.253Z,99918.19
2022-08-03T18:58:52.336Z,99923.38
2022-08-03T19:02:01.101Z,99920.91
2022-08-03T19:04:34.262Z,99928.03
2022-08-03T19:07:09.325Z,99920.63
2022-08-03T19:09:48.062Z,99927.88
2022-08-03T19:12:42.449Z,99929.97
2022-08-03T19:15:13.535Z,99930.91
2022-08-03T19:17:53.721Z,99935.50
2022-08-03T19:20:25.459Z,99936.22
2022-08-03T19:22:53.935Z,99943.47
2022-08-03T19:25:20.606Z,99935.84
2022-08-03T19:28:04.241Z,99948.53
2022-08-03T19:30:38.583Z,99948.53
2022-08-03T19:33:11.173Z,99941.91
2022-08-03T19:35:52.046Z,99950.84
2022-08-03T19:38:27.588Z,99945.44
2022-08-03T19:40:59.727Z,99945.69
2022-08-03T19:43:32.963Z,99954.19
2022-08-03T19:46:06.323Z,99959.22
2022-08-03T19:48:34.634Z,99960.94
2022-08-03T19:51:02.769Z,99952.66
2022-08-03T19:53:45.189Z,99956.97
2022-08-03T19:56:14.240Z,99953.47
2022-08-03T19:58:43.238Z,99954.91
2022-08-03T20:01:21.094Z,99950.59
2022-08-03T20:03:49.740Z,99952.25
2022-08-03T20:06:17.710Z,99956.78
2022-08-03T20:08:44.443Z,99958.47
2022-08-03T20:11:11.513Z,99950.34
2022-08-03T20:13:39.055Z,99954.28
2022-08-03T20:16:06.291Z,99952.44
2022-08-03T20:18:39.308Z,99949.31
2022-08-03T20:21:15.252Z,99944.97
2022-08-03T20:24:03.290Z,99954.88
2022-08-03T20:26:53.381Z,99958.31
2022-08-03T20:30:05.314Z,99963.50
2022-08-03T20:32:19.071Z,99959.28
2022-08-03T20:34:51.041Z,99949.78
2022-08-03T20:37:19.461Z,99964.63
2022-08-03T20:39:49.478Z,99956.81
2022-08-03T20:42:21.563Z,99961.75
2022-08-03T20:45:04.439Z,99957.78
2022-08-03T20:47:35.579Z,99960.28
2022-08-03T20:50:03.746Z,99952.22
2022-08-03T20:52:33.194Z,99949.38
2022-08-03T20:55:00.051Z,99945.41
2022-08-03T20:57:33.166Z,99941.28
2022-08-03T21:00:04.183Z,99949.53
2022-08-03T21:02:31.316Z,99951.59
2022-08-03T21:05:03.749Z,99946.84
2022-08-03T21:08:05.716Z,99951.88
2022-08-03T21:10:30.287Z,99939.81
2022-08-03T21:13:15.906Z,99946.41
2022-08-03T21:16:04.864Z,99935.81
2022-08-03T21:18:45.126Z,99938.47
2022-08-03T21:21:14.873Z,99939.94
2022-08-03T21:23:49.007Z,99941.63
2022-08-03T21:26:20.614Z,99930.44
2022-08-03T21:28:48.403Z,99925.06
2022-08-03T21:31:25.655Z,99925.50
2022-08-03T21:34:02.667Z,99930.03
2022-08-03T21:36:31.654Z,99929.94
2022-08-03T21:38:59.135Z,99922.88
2022-08-03T21:41:28.092Z,99930.28
2022-08-03T21:43:54.841Z,99930.38
2022-08-03T21:46:22.260Z,99934.50
2022-08-03T21:48:56.522Z,99926.06
2022-08-03T21:51:42.936Z,99930.00
2022-08-03T21:54:09.670Z,99929.63
2022-08-03T21:56:41.491Z,99927.50
2022-08-03T21:59:15.721Z,99926.50
2022-08-03T22:01:42.791Z,99920.94
2022-08-03T22:04:11.940Z,99926.69
2022-08-03T22:06:57.624Z,99923.38
2022-08-03T22:09:24.300Z,99924.22
2022-08-03T22:11:54.216Z,99917.84
2022-08-03T22:14:21.498Z,99920.00
2022-08-03T22:16:49.092Z,99924.53
2022-08-03T22:19:15.577Z,99921.69
2022-08-03T22:21:47.377Z,99920.22
2022-08-03T22:24:18.060Z,99925.09
2022-08-03T22:27:05.992Z,99921.84
2022-08-03T22:29:34.595Z,99926.13
2022-08-03T22:32:01.492Z,99916.59
2022-08-03T22:34:28.532Z,99923.53
2022-08-03T22:37:01.113Z,99920.59
2022-08-03T22:39:28.827Z,99924.47
2022-08-03T22:41:58.942Z,99922.19
2022-08-03T22:44:26.410Z,99918.06
2022-08-03T22:46:53.289Z,99921.28
2022-08-03T22:49:20.223Z,99925.41
2022-08-03T22:51:47.366Z,99924.13
2022-08-03T22:54:14.484Z,99925.41
2022-08-03T22:56:41.381Z,99921.03
2022-08-03T22:59:40.065Z,99917.91
2022-08-03T23:02:00.330Z,99921.59
2022-08-03T23:04:28.973Z,99917.63
2022-08-03T23:07:02.952Z,99928.34
2022-08-03T23:09:30.810Z,99923.81
2022-08-03T23:11:59.417Z,99926.56
2022-08-03T23:14:30.225Z,99920.78
2022-08-03T23:16:59.882Z,99924.47
2022-08-03T23:19:27.509Z,99922.00
2022-08-03T23:22:02.814Z,99923.34
2022-08-03T23:24:30.804Z,99922.38
2022-08-03T23:26:58.769Z,99920.63
2022-08-03T23:29:26.408Z,99916.38
2022-08-03T23:31:54.394Z,99923.72
2022-08-03T23:34:39.885Z,99923.72
2022-08-03T23:37:06.605Z,99925.56
2022-08-03T23:39:35.132Z,99923.84
2022-08-03T23:42:02.984Z,99929.69
2022-08-03T23:44:37.159Z,99920.94
2022-08-03T23:47:03.791Z,99914.94
2022-08-03T23:49:30.233Z,99916.56
2022-08-03T23:52:05.775Z,99913.53
2022-08-03T23:54:59.844Z,99911.06
2022-08-03T23:57:50.813Z,99912.81
